sensor_id;sensor_type;location;lat;lon;timestamp;temperature;humidity
70366;DHT22;57787;48.216;12.396;2023-03-31T00:01:56;7.70;88.50
70366;DHT22;57787;48.216;12.396;2023-03-31T00:04:25;7.70;88.30
70366;DHT22;57787;48.216;12.396;2023-03-31T00:06:52;7.70;87.90
70366;DHT22;57787;48.216;12.396;2023-03-31T00:09:20;7.60;88.10
70366;DHT22;57787;48.216;12.396;2023-03-31T00:11:51;7.50;87.90
70366;DHT22;57787;48.216;12.396;2023-03-31T00:14:19;7.50;88.30
70366;DHT22;57787;48.216;12.396;2023-03-31T00:16:46;7.50;87.70
70366;DHT22;57787;48.216;12.396;2023-03-31T00:19:13;7.40;88.20
70366;DHT22;57787;48.216;12.396;2023-03-31T00:21:47;7.50;88.20
70366;DHT22;57787;48.216;12.396;2023-03-31T00:24:14;7.40;88.30
70366;DHT22;57787;48.216;12.396;2023-03-31T00:26:42;7.40;88.20
70366;DHT22;57787;48.216;12.396;2023-03-31T00:29:10;7.30;88.20
70366;DHT22;57787;48.216;12.396;2023-03-31T00:31:37;7.30;88.20
70366;DHT22;57787;48.216;12.396;2023-03-31T00:34:05;7.30;88.60
70366;DHT22;57787;48.216;12.396;2023-03-31T00:36:31;7.30;88.90
70366;DHT22;57787;48.216;12.396;2023-03-31T00:39:03;7.30;88.40
70366;DHT22;57787;48.216;12.396;2023-03-31T00:41:35;7.30;88.50
70366;DHT22;57787;48.216;12.396;2023-03-31T00:46:41;7.30;89.10
70366;DHT22;57787;48.216;12.396;2023-03-31T00:49:17;7.30;89.00
70366;DHT22;57787;48.216;12.396;2023-03-31T00:51:46;7.30;88.80
70366;DHT22;57787;48.216;12.396;2023-03-31T00:54:14;7.30;89.10
70366;DHT22;57787;48.216;12.396;2023-03-31T00:56:42;7.30;88.50
70366;DHT22;57787;48.216;12.396;2023-03-31T00:59:10;7.30;88.60
70366;DHT22;57787;48.216;12.396;2023-03-31T01:04:16;7.30;88.80
70366;DHT22;57787;48.216;12.396;2023-03-31T01:06:52;7.20;88.30
70366;DHT22;57787;48.216;12.396;2023-03-31T01:09:23;7.20;88.80
70366;DHT22;57787;48.216;12.396;2023-03-31T01:11:50;7.20;88.90
70366;DHT22;57787;48.216;12.396;2023-03-31T01:14:17;7.20;88.90
70366;DHT22;57787;48.216;12.396;2023-03-31T01:16:44;7.20;89.40
70366;DHT22;57787;48.216;12.396;2023-03-31T01:19:18;7.20;89.20
70366;DHT22;57787;48.216;12.396;2023-03-31T01:21:57;7.30;89.20
70366;DHT22;57787;48.216;12.396;2023-03-31T01:24:44;7.30;89.00
70366;DHT22;57787;48.216;12.396;2023-03-31T01:27:26;7.30;89.30
70366;DHT22;57787;48.216;12.396;2023-03-31T01:42:50;7.50;89.70
70366;DHT22;57787;48.216;12.396;2023-03-31T01:45:31;7.60;89.60
70366;DHT22;57787;48.216;12.396;2023-03-31T01:48:02;7.60;89.80
70366;DHT22;57787;48.216;12.396;2023-03-31T01:50:36;7.70;89.60
70366;DHT22;57787;48.216;12.396;2023-03-31T01:53:10;7.70;89.60
70366;DHT22;57787;48.216;12.396;2023-03-31T01:55:50;7.80;89.60
70366;DHT22;57787;48.216;12.396;2023-03-31T01:58:20;7.80;89.50
70366;DHT22;57787;48.216;12.396;2023-03-31T02:00:51;7.90;89.40
70366;DHT22;57787;48.216;12.396;2023-03-31T02:03:43;7.90;89.30
70366;DHT22;57787;48.216;12.396;2023-03-31T02:06:13;8.00;89.20
70366;DHT22;57787;48.216;12.396;2023-03-31T02:08:50;8.00;89.00
70366;DHT22;57787;48.216;12.396;2023-03-31T02:11:19;8.00;88.80
70366;DHT22;57787;48.216;12.396;2023-03-31T02:19:05;8.10;88.40
70366;DHT22;57787;48.216;12.396;2023-03-31T02:21:33;8.00;88.00
70366;DHT22;57787;48.216;12.396;2023-03-31T02:24:03;8.00;88.10
70366;DHT22;57787;48.216;12.396;2023-03-31T02:26:35;8.00;88.10
70366;DHT22;57787;48.216;12.396;2023-03-31T02:29:03;8.00;88.10
70366;DHT22;57787;48.216;12.396;2023-03-31T02:31:46;8.00;88.10
70366;DHT22;57787;48.216;12.396;2023-03-31T02:34:16;8.00;88.10
70366;DHT22;57787;48.216;12.396;2023-03-31T02:36:43;8.00;88.00
70366;DHT22;57787;48.216;12.396;2023-03-31T02:39:12;8.00;87.90
70366;DHT22;57787;48.216;12.396;2023-03-31T02:41:40;8.00;88.00
70366;DHT22;57787;48.216;12.396;2023-03-31T02:44:09;8.10;87.90
70366;DHT22;57787;48.216;12.396;2023-03-31T02:46:36;8.10;87.60
70366;DHT22;57787;48.216;12.396;2023-03-31T02:49:04;8.20;87.70
70366;DHT22;57787;48.216;12.396;2023-03-31T02:51:46;8.10;87.80
70366;DHT22;57787;48.216;12.396;2023-03-31T02:57:10;8.10;87.70
70366;DHT22;57787;48.216;12.396;2023-03-31T03:05:07;8.20;87.60
70366;DHT22;57787;48.216;12.396;2023-03-31T03:07:54;8.30;87.50
70366;DHT22;57787;48.216;12.396;2023-03-31T03:10:28;8.30;87.40
70366;DHT22;57787;48.216;12.396;2023-03-31T03:13:07;8.30;87.40
70366;DHT22;57787;48.216;12.396;2023-03-31T03:18:07;8.30;87.40
70366;DHT22;57787;48.216;12.396;2023-03-31T03:20:34;8.30;87.30
70366;DHT22;57787;48.216;12.396;2023-03-31T03:23:01;8.30;87.40
70366;DHT22;57787;48.216;12.396;2023-03-31T03:28:10;8.30;87.30
70366;DHT22;57787;48.216;12.396;2023-03-31T03:30:37;8.30;87.20
70366;DHT22;57787;48.216;12.396;2023-03-31T03:33:04;8.30;87.20
70366;DHT22;57787;48.216;12.396;2023-03-31T03:35:32;8.30;87.10
70366;DHT22;57787;48.216;12.396;2023-03-31T03:37:59;8.30;87.10
70366;DHT22;57787;48.216;12.396;2023-03-31T03:43:17;8.30;87.00
70366;DHT22;57787;48.216;12.396;2023-03-31T03:45:47;8.30;87.10
70366;DHT22;57787;48.216;12.396;2023-03-31T03:48:14;8.40;87.00
70366;DHT22;57787;48.216;12.396;2023-03-31T03:50:41;8.40;87.00
70366;DHT22;57787;48.216;12.396;2023-03-31T03:53:12;8.40;87.30
70366;DHT22;57787;48.216;12.396;2023-03-31T03:55:39;8.50;87.50
70366;DHT22;57787;48.216;12.396;2023-03-31T03:58:06;8.50;87.60
70366;DHT22;57787;48.216;12.396;2023-03-31T04:00:33;8.50;87.70
70366;DHT22;57787;48.216;12.396;2023-03-31T04:02:59;8.50;87.90
70366;DHT22;57787;48.216;12.396;2023-03-31T04:05:27;8.50;87.90
70366;DHT22;57787;48.216;12.396;2023-03-31T04:07:54;8.50;88.10
70366;DHT22;57787;48.216;12.396;2023-03-31T04:10:21;8.50;88.30
70366;DHT22;57787;48.216;12.396;2023-03-31T04:12:49;8.50;88.30
70366;DHT22;57787;48.216;12.396;2023-03-31T04:15:16;8.40;88.50
70366;DHT22;57787;48.216;12.396;2023-03-31T04:17:43;8.40;88.50
70366;DHT22;57787;48.216;12.396;2023-03-31T04:20:16;8.40;88.50
70366;DHT22;57787;48.216;12.396;2023-03-31T04:22:43;8.40;88.60
70366;DHT22;57787;48.216;12.396;2023-03-31T04:25:13;8.40;88.70
70366;DHT22;57787;48.216;12.396;2023-03-31T04:27:42;8.40;88.90
70366;DHT22;57787;48.216;12.396;2023-03-31T04:30:18;8.50;89.00
70366;DHT22;57787;48.216;12.396;2023-03-31T04:32:59;8.50;89.20
70366;DHT22;57787;48.216;12.396;2023-03-31T04:35:27;8.40;89.40
70366;DHT22;57787;48.216;12.396;2023-03-31T04:38:08;8.40;89.40
70366;DHT22;57787;48.216;12.396;2023-03-31T04:43:10;8.40;89.70
70366;DHT22;57787;48.216;12.396;2023-03-31T04:45:39;8.50;89.80
70366;DHT22;57787;48.216;12.396;2023-03-31T04:48:08;8.50;89.60
70366;DHT22;57787;48.216;12.396;2023-03-31T04:50:34;8.50;89.50
70366;DHT22;57787;48.216;12.396;2023-03-31T04:55:37;8.50;89.70
70366;DHT22;57787;48.216;12.396;2023-03-31T04:58:04;8.50;89.60
70366;DHT22;57787;48.216;12.396;2023-03-31T05:00:31;8.50;89.40
70366;DHT22;57787;48.216;12.396;2023-03-31T05:02:59;8.60;89.40
70366;DHT22;57787;48.216;12.396;2023-03-31T05:05:26;8.50;89.40
70366;DHT22;57787;48.216;12.396;2023-03-31T05:07:53;8.50;89.30
70366;DHT22;57787;48.216;12.396;2023-03-31T05:10:20;8.50;89.40
70366;DHT22;57787;48.216;12.396;2023-03-31T05:12:47;8.50;89.60
70366;DHT22;57787;48.216;12.396;2023-03-31T05:15:14;8.50;89.50
70366;DHT22;57787;48.216;12.396;2023-03-31T05:17:41;8.40;89.50
70366;DHT22;57787;48.216;12.396;2023-03-31T05:20:08;8.50;89.60
70366;DHT22;57787;48.216;12.396;2023-03-31T05:22:36;8.50;89.60
70366;DHT22;57787;48.216;12.396;2023-03-31T05:25:04;8.40;89.60
70366;DHT22;57787;48.216;12.396;2023-03-31T05:27:31;8.40;89.60
70366;DHT22;57787;48.216;12.396;2023-03-31T05:29:58;8.50;89.50
70366;DHT22;57787;48.216;12.396;2023-03-31T05:32:25;8.40;89.50
70366;DHT22;57787;48.216;12.396;2023-03-31T05:34:53;8.40;89.50
70366;DHT22;57787;48.216;12.396;2023-03-31T05:37:23;8.40;89.50
70366;DHT22;57787;48.216;12.396;2023-03-31T05:39:50;8.40;89.50
70366;DHT22;57787;48.216;12.396;2023-03-31T05:42:17;8.50;89.70
70366;DHT22;57787;48.216;12.396;2023-03-31T05:44:44;8.50;89.80
70366;DHT22;57787;48.216;12.396;2023-03-31T05:47:11;8.50;89.80
70366;DHT22;57787;48.216;12.396;2023-03-31T05:49:38;8.50;89.60
70366;DHT22;57787;48.216;12.396;2023-03-31T05:52:05;8.50;89.50
70366;DHT22;57787;48.216;12.396;2023-03-31T05:54:32;8.50;89.40
70366;DHT22;57787;48.216;12.396;2023-03-31T05:56:59;8.50;89.40
70366;DHT22;57787;48.216;12.396;2023-03-31T05:59:26;8.50;89.30
70366;DHT22;57787;48.216;12.396;2023-03-31T06:01:53;8.60;89.30
70366;DHT22;57787;48.216;12.396;2023-03-31T06:04:20;8.60;89.20
70366;DHT22;57787;48.216;12.396;2023-03-31T06:06:47;8.60;89.20
70366;DHT22;57787;48.216;12.396;2023-03-31T06:09:18;8.60;89.30
70366;DHT22;57787;48.216;12.396;2023-03-31T06:11:47;8.60;89.40
70366;DHT22;57787;48.216;12.396;2023-03-31T06:14:16;8.60;89.30
70366;DHT22;57787;48.216;12.396;2023-03-31T06:16:45;8.60;89.20
70366;DHT22;57787;48.216;12.396;2023-03-31T06:19:13;8.60;89.20
70366;DHT22;57787;48.216;12.396;2023-03-31T06:21:40;8.60;89.00
70366;DHT22;57787;48.216;12.396;2023-03-31T06:24:10;8.60;89.20
70366;DHT22;57787;48.216;12.396;2023-03-31T06:26:37;8.60;89.30
70366;DHT22;57787;48.216;12.396;2023-03-31T06:29:03;8.60;89.40
70366;DHT22;57787;48.216;12.396;2023-03-31T06:31:30;8.70;89.60
70366;DHT22;57787;48.216;12.396;2023-03-31T06:33:57;8.70;89.60
70366;DHT22;57787;48.216;12.396;2023-03-31T06:36:24;8.80;89.80
70366;DHT22;57787;48.216;12.396;2023-03-31T06:38:52;8.90;89.90
70366;DHT22;57787;48.216;12.396;2023-03-31T06:41:19;9.00;89.70
70366;DHT22;57787;48.216;12.396;2023-03-31T06:43:46;9.10;89.60
70366;DHT22;57787;48.216;12.396;2023-03-31T06:46:13;9.10;89.60
70366;DHT22;57787;48.216;12.396;2023-03-31T06:48:40;9.20;89.40
70366;DHT22;57787;48.216;12.396;2023-03-31T06:51:09;9.30;89.40
70366;DHT22;57787;48.216;12.396;2023-03-31T06:53:36;9.30;89.40
70366;DHT22;57787;48.216;12.396;2023-03-31T06:56:03;9.50;89.60
70366;DHT22;57787;48.216;12.396;2023-03-31T06:58:31;9.60;89.70
70366;DHT22;57787;48.216;12.396;2023-03-31T07:00:58;9.80;89.30
70366;DHT22;57787;48.216;12.396;2023-03-31T07:03:27;9.80;88.70
70366;DHT22;57787;48.216;12.396;2023-03-31T07:14:25;10.20;87.10
70366;DHT22;57787;48.216;12.396;2023-03-31T07:16:52;10.30;87.40
70366;DHT22;57787;48.216;12.396;2023-03-31T07:19:19;10.60;87.70
70366;DHT22;57787;48.216;12.396;2023-03-31T07:21:46;10.90;88.10
70366;DHT22;57787;48.216;12.396;2023-03-31T07:24:14;11.20;87.80
70366;DHT22;57787;48.216;12.396;2023-03-31T07:29:16;11.50;85.20
70366;DHT22;57787;48.216;12.396;2023-03-31T07:31:45;11.60;83.40
70366;DHT22;57787;48.216;12.396;2023-03-31T07:34:12;11.60;83.40
70366;DHT22;57787;48.216;12.396;2023-03-31T07:39:18;11.50;83.00
70366;DHT22;57787;48.216;12.396;2023-03-31T07:47:08;11.20;83.50
70366;DHT22;57787;48.216;12.396;2023-03-31T07:49:35;11.10;83.60
70366;DHT22;57787;48.216;12.396;2023-03-31T07:52:02;11.00;84.00
70366;DHT22;57787;48.216;12.396;2023-03-31T07:54:28;10.90;84.80
70366;DHT22;57787;48.216;12.396;2023-03-31T07:56:55;10.80;85.20
70366;DHT22;57787;48.216;12.396;2023-03-31T07:59:22;10.80;85.50
70366;DHT22;57787;48.216;12.396;2023-03-31T08:01:48;10.70;85.40
70366;DHT22;57787;48.216;12.396;2023-03-31T08:04:16;10.70;85.30
70366;DHT22;57787;48.216;12.396;2023-03-31T08:06:42;10.60;86.20
70366;DHT22;57787;48.216;12.396;2023-03-31T08:09:09;10.60;86.70
70366;DHT22;57787;48.216;12.396;2023-03-31T08:11:36;10.50;86.70
70366;DHT22;57787;48.216;12.396;2023-03-31T08:14:03;10.50;87.10
70366;DHT22;57787;48.216;12.396;2023-03-31T08:16:30;10.50;87.00
70366;DHT22;57787;48.216;12.396;2023-03-31T08:18:57;10.60;87.10
70366;DHT22;57787;48.216;12.396;2023-03-31T08:21:24;10.60;86.60
70366;DHT22;57787;48.216;12.396;2023-03-31T08:23:54;10.60;86.70
70366;DHT22;57787;48.216;12.396;2023-03-31T08:26:21;10.70;87.10
70366;DHT22;57787;48.216;12.396;2023-03-31T08:28:50;10.70;87.50
70366;DHT22;57787;48.216;12.396;2023-03-31T08:31:19;10.80;86.90
70366;DHT22;57787;48.216;12.396;2023-03-31T08:33:46;10.80;86.70
70366;DHT22;57787;48.216;12.396;2023-03-31T08:36:13;10.80;86.50
70366;DHT22;57787;48.216;12.396;2023-03-31T08:38:41;10.90;86.50
70366;DHT22;57787;48.216;12.396;2023-03-31T08:41:20;11.00;86.50
70366;DHT22;57787;48.216;12.396;2023-03-31T08:51:55;11.40;85.60
70366;DHT22;57787;48.216;12.396;2023-03-31T08:57:09;11.70;85.60
70366;DHT22;57787;48.216;12.396;2023-03-31T09:13:23;12.10;83.00
70366;DHT22;57787;48.216;12.396;2023-03-31T09:18:42;12.00;83.60
70366;DHT22;57787;48.216;12.396;2023-03-31T09:21:17;12.00;83.60
70366;DHT22;57787;48.216;12.396;2023-03-31T09:26:21;11.90;83.70
70366;DHT22;57787;48.216;12.396;2023-03-31T09:28:49;11.80;84.50
70366;DHT22;57787;48.216;12.396;2023-03-31T09:31:18;11.80;84.80
70366;DHT22;57787;48.216;12.396;2023-03-31T09:33:46;11.80;85.10
70366;DHT22;57787;48.216;12.396;2023-03-31T09:36:15;11.80;85.00
70366;DHT22;57787;48.216;12.396;2023-03-31T09:38:45;11.70;85.00
70366;DHT22;57787;48.216;12.396;2023-03-31T09:41:13;11.70;85.40
70366;DHT22;57787;48.216;12.396;2023-03-31T09:43:41;11.80;85.10
70366;DHT22;57787;48.216;12.396;2023-03-31T09:48:49;12.00;85.30
70366;DHT22;57787;48.216;12.396;2023-03-31T09:51:19;12.30;85.40
70366;DHT22;57787;48.216;12.396;2023-03-31T09:54:02;12.40;84.10
70366;DHT22;57787;48.216;12.396;2023-03-31T09:59:13;12.80;82.50
70366;DHT22;57787;48.216;12.396;2023-03-31T10:01:40;13.00;82.10
70366;DHT22;57787;48.216;12.396;2023-03-31T10:04:07;13.20;82.40
70366;DHT22;57787;48.216;12.396;2023-03-31T10:06:37;13.50;82.80
70366;DHT22;57787;48.216;12.396;2023-03-31T10:09:06;13.80;82.80
70366;DHT22;57787;48.216;12.396;2023-03-31T10:11:38;14.00;83.00
70366;DHT22;57787;48.216;12.396;2023-03-31T10:14:14;14.20;81.60
70366;DHT22;57787;48.216;12.396;2023-03-31T10:21:39;14.80;78.30
70366;DHT22;57787;48.216;12.396;2023-03-31T10:24:09;14.90;78.50
70366;DHT22;57787;48.216;12.396;2023-03-31T10:26:36;15.00;76.80
70366;DHT22;57787;48.216;12.396;2023-03-31T10:29:09;15.10;76.50
70366;DHT22;57787;48.216;12.396;2023-03-31T10:31:38;15.20;77.00
70366;DHT22;57787;48.216;12.396;2023-03-31T10:34:06;15.10;75.00
70366;DHT22;57787;48.216;12.396;2023-03-31T10:36:34;15.00;74.70
70366;DHT22;57787;48.216;12.396;2023-03-31T10:39:04;14.90;73.30
70366;DHT22;57787;48.216;12.396;2023-03-31T10:41:31;14.80;74.60
70366;DHT22;57787;48.216;12.396;2023-03-31T10:43:59;14.80;73.50
70366;DHT22;57787;48.216;12.396;2023-03-31T10:49:14;14.70;74.10
70366;DHT22;57787;48.216;12.396;2023-03-31T10:51:48;14.80;74.30
70366;DHT22;57787;48.216;12.396;2023-03-31T10:54:17;14.80;73.80
70366;DHT22;57787;48.216;12.396;2023-03-31T10:56:50;14.90;73.30
70366;DHT22;57787;48.216;12.396;2023-03-31T11:12:30;15.90;70.90
70366;DHT22;57787;48.216;12.396;2023-03-31T11:20:27;16.20;67.00
70366;DHT22;57787;48.216;12.396;2023-03-31T11:31:04;16.40;68.40
70366;DHT22;57787;48.216;12.396;2023-03-31T11:33:46;16.40;68.10
70366;DHT22;57787;48.216;12.396;2023-03-31T11:36:17;16.50;68.40
70366;DHT22;57787;48.216;12.396;2023-03-31T11:41:24;16.50;67.90
70366;DHT22;57787;48.216;12.396;2023-03-31T11:43:55;16.50;67.80
70366;DHT22;57787;48.216;12.396;2023-03-31T11:49:10;16.30;65.70
70366;DHT22;57787;48.216;12.396;2023-03-31T11:51:43;16.10;66.20
70366;DHT22;57787;48.216;12.396;2023-03-31T11:54:17;15.80;66.30
70366;DHT22;57787;48.216;12.396;2023-03-31T11:56:46;15.60;67.40
70366;DHT22;57787;48.216;12.396;2023-03-31T11:59:13;15.30;68.20
70366;DHT22;57787;48.216;12.396;2023-03-31T12:06:40;14.80;72.50
70366;DHT22;57787;48.216;12.396;2023-03-31T12:11:57;14.20;72.30
70366;DHT22;57787;48.216;12.396;2023-03-31T12:14:45;13.90;73.60
70366;DHT22;57787;48.216;12.396;2023-03-31T12:17:16;13.80;75.10
70366;DHT22;57787;48.216;12.396;2023-03-31T12:19:46;13.60;74.50
70366;DHT22;57787;48.216;12.396;2023-03-31T12:24:55;13.60;75.50
70366;DHT22;57787;48.216;12.396;2023-03-31T12:27:24;13.60;76.30
70366;DHT22;57787;48.216;12.396;2023-03-31T12:30:00;13.70;76.30
70366;DHT22;57787;48.216;12.396;2023-03-31T12:32:29;13.70;73.60
70366;DHT22;57787;48.216;12.396;2023-03-31T12:37:46;13.80;72.70
70366;DHT22;57787;48.216;12.396;2023-03-31T12:40:23;13.80;71.40
70366;DHT22;57787;48.216;12.396;2023-03-31T12:43:10;13.90;71.30
70366;DHT22;57787;48.216;12.396;2023-03-31T12:48:32;14.10;69.80
70366;DHT22;57787;48.216;12.396;2023-03-31T12:53:46;14.10;68.30
70366;DHT22;57787;48.216;12.396;2023-03-31T12:56:20;14.00;68.60
70366;DHT22;57787;48.216;12.396;2023-03-31T12:58:47;13.90;68.80
70366;DHT22;57787;48.216;12.396;2023-03-31T13:01:20;13.80;69.60
70366;DHT22;57787;48.216;12.396;2023-03-31T13:09:05;13.50;69.70
70366;DHT22;57787;48.216;12.396;2023-03-31T13:11:37;13.40;70.00
70366;DHT22;57787;48.216;12.396;2023-03-31T13:16:52;13.30;70.90
70366;DHT22;57787;48.216;12.396;2023-03-31T13:19:36;13.20;70.60
70366;DHT22;57787;48.216;12.396;2023-03-31T13:22:06;13.10;71.10
70366;DHT22;57787;48.216;12.396;2023-03-31T13:24:33;13.00;71.90
70366;DHT22;57787;48.216;12.396;2023-03-31T13:29:46;13.00;72.30
70366;DHT22;57787;48.216;12.396;2023-03-31T13:32:17;13.00;73.40
70366;DHT22;57787;48.216;12.396;2023-03-31T13:48:01;13.10;70.90
70366;DHT22;57787;48.216;12.396;2023-03-31T13:50:38;13.00;70.90
70366;DHT22;57787;48.216;12.396;2023-03-31T14:03:52;12.90;70.20
70366;DHT22;57787;48.216;12.396;2023-03-31T14:08:55;12.90;70.60
70366;DHT22;57787;48.216;12.396;2023-03-31T14:11:28;13.00;71.10
70366;DHT22;57787;48.216;12.396;2023-03-31T14:14:11;13.00;70.60
70366;DHT22;57787;48.216;12.396;2023-03-31T14:16:45;13.00;69.90
70366;DHT22;57787;48.216;12.396;2023-03-31T14:21:57;13.10;68.70
70366;DHT22;57787;48.216;12.396;2023-03-31T14:27:05;13.30;66.00
70366;DHT22;57787;48.216;12.396;2023-03-31T14:32:20;13.50;65.80
70366;DHT22;57787;48.216;12.396;2023-03-31T14:35:04;13.50;66.10
70366;DHT22;57787;48.216;12.396;2023-03-31T14:37:33;13.50;65.90
70366;DHT22;57787;48.216;12.396;2023-03-31T14:40:00;13.40;66.90
70366;DHT22;57787;48.216;12.396;2023-03-31T14:42:34;13.40;65.90
70366;DHT22;57787;48.216;12.396;2023-03-31T14:45:05;13.30;65.90
70366;DHT22;57787;48.216;12.396;2023-03-31T14:47:35;13.30;65.70
70366;DHT22;57787;48.216;12.396;2023-03-31T14:50:12;13.20;65.80
70366;DHT22;57787;48.216;12.396;2023-03-31T14:52:45;13.10;66.40
70366;DHT22;57787;48.216;12.396;2023-03-31T14:55:13;13.10;65.90
70366;DHT22;57787;48.216;12.396;2023-03-31T14:57:45;13.00;65.10
70366;DHT22;57787;48.216;12.396;2023-03-31T15:00:19;13.00;65.60
70366;DHT22;57787;48.216;12.396;2023-03-31T15:02:53;12.90;66.90
70366;DHT22;57787;48.216;12.396;2023-03-31T15:05:24;13.00;66.30
70366;DHT22;57787;48.216;12.396;2023-03-31T15:07:55;13.10;66.60
70366;DHT22;57787;48.216;12.396;2023-03-31T15:10:23;13.30;67.40
70366;DHT22;57787;48.216;12.396;2023-03-31T15:12:50;13.50;66.80
70366;DHT22;57787;48.216;12.396;2023-03-31T15:15:18;13.60;66.60
70366;DHT22;57787;48.216;12.396;2023-03-31T15:17:46;13.70;66.00
70366;DHT22;57787;48.216;12.396;2023-03-31T15:20:24;13.70;65.50
70366;DHT22;57787;48.216;12.396;2023-03-31T15:22:55;13.60;65.80
70366;DHT22;57787;48.216;12.396;2023-03-31T15:25:26;13.50;65.70
70366;DHT22;57787;48.216;12.396;2023-03-31T15:27:56;13.40;65.50
70366;DHT22;57787;48.216;12.396;2023-03-31T15:30:27;13.20;67.70
70366;DHT22;57787;48.216;12.396;2023-03-31T15:32:57;13.00;67.70
70366;DHT22;57787;48.216;12.396;2023-03-31T15:35:44;12.80;70.90
70366;DHT22;57787;48.216;12.396;2023-03-31T15:38:11;12.60;70.80
70366;DHT22;57787;48.216;12.396;2023-03-31T15:40:43;12.40;70.70
70366;DHT22;57787;48.216;12.396;2023-03-31T15:45:55;12.00;72.30
70366;DHT22;57787;48.216;12.396;2023-03-31T15:48:29;11.90;74.40
70366;DHT22;57787;48.216;12.396;2023-03-31T15:50:59;11.90;74.00
70366;DHT22;57787;48.216;12.396;2023-03-31T15:53:34;12.10;74.80
70366;DHT22;57787;48.216;12.396;2023-03-31T15:56:05;12.20;74.10
70366;DHT22;57787;48.216;12.396;2023-03-31T15:58:46;12.30;73.80
70366;DHT22;57787;48.216;12.396;2023-03-31T16:01:16;12.40;73.40
70366;DHT22;57787;48.216;12.396;2023-03-31T16:03:44;12.30;71.70
70366;DHT22;57787;48.216;12.396;2023-03-31T16:06:18;12.30;70.80
70366;DHT22;57787;48.216;12.396;2023-03-31T16:08:47;12.20;70.90
70366;DHT22;57787;48.216;12.396;2023-03-31T16:11:19;12.20;71.60
70366;DHT22;57787;48.216;12.396;2023-03-31T16:13:50;12.10;71.80
70366;DHT22;57787;48.216;12.396;2023-03-31T16:16:19;12.10;71.60
70366;DHT22;57787;48.216;12.396;2023-03-31T16:18:50;12.10;70.30
70366;DHT22;57787;48.216;12.396;2023-03-31T16:21:23;12.10;70.60
70366;DHT22;57787;48.216;12.396;2023-03-31T16:23:54;12.10;70.50
70366;DHT22;57787;48.216;12.396;2023-03-31T16:26:23;12.00;69.40
70366;DHT22;57787;48.216;12.396;2023-03-31T16:28:51;12.00;69.50
70366;DHT22;57787;48.216;12.396;2023-03-31T16:31:26;11.90;68.50
70366;DHT22;57787;48.216;12.396;2023-03-31T16:33:55;11.90;67.70
70366;DHT22;57787;48.216;12.396;2023-03-31T16:36:22;11.80;68.70
70366;DHT22;57787;48.216;12.396;2023-03-31T16:39:04;11.80;69.20
70366;DHT22;57787;48.216;12.396;2023-03-31T16:41:33;11.80;67.50
70366;DHT22;57787;48.216;12.396;2023-03-31T16:44:01;11.70;66.70
70366;DHT22;57787;48.216;12.396;2023-03-31T16:46:32;11.70;65.70
70366;DHT22;57787;48.216;12.396;2023-03-31T16:48:59;11.70;67.90
70366;DHT22;57787;48.216;12.396;2023-03-31T16:51:26;11.70;66.80
70366;DHT22;57787;48.216;12.396;2023-03-31T16:53:53;11.60;68.60
70366;DHT22;57787;48.216;12.396;2023-03-31T16:56:24;11.60;67.60
70366;DHT22;57787;48.216;12.396;2023-03-31T16:58:52;11.60;68.60
70366;DHT22;57787;48.216;12.396;2023-03-31T17:01:19;11.60;68.40
70366;DHT22;57787;48.216;12.396;2023-03-31T17:03:48;11.60;68.90
70366;DHT22;57787;48.216;12.396;2023-03-31T17:06:16;11.60;68.90
70366;DHT22;57787;48.216;12.396;2023-03-31T17:08:43;11.60;70.60
70366;DHT22;57787;48.216;12.396;2023-03-31T17:11:11;11.60;70.70
70366;DHT22;57787;48.216;12.396;2023-03-31T17:13:41;11.60;70.90
70366;DHT22;57787;48.216;12.396;2023-03-31T17:16:09;11.50;71.00
70366;DHT22;57787;48.216;12.396;2023-03-31T17:18:44;11.40;70.70
70366;DHT22;57787;48.216;12.396;2023-03-31T17:21:12;11.30;71.10
70366;DHT22;57787;48.216;12.396;2023-03-31T17:23:39;11.20;71.40
70366;DHT22;57787;48.216;12.396;2023-03-31T17:26:07;11.10;71.50
70366;DHT22;57787;48.216;12.396;2023-03-31T17:28:45;11.00;71.50
70366;DHT22;57787;48.216;12.396;2023-03-31T17:31:17;10.80;71.40
70366;DHT22;57787;48.216;12.396;2023-03-31T17:33:44;10.70;72.10
70366;DHT22;57787;48.216;12.396;2023-03-31T17:36:13;10.50;72.80
70366;DHT22;57787;48.216;12.396;2023-03-31T17:38:41;10.50;72.70
70366;DHT22;57787;48.216;12.396;2023-03-31T17:41:09;10.40;72.80
70366;DHT22;57787;48.216;12.396;2023-03-31T17:43:45;10.40;73.60
70366;DHT22;57787;48.216;12.396;2023-03-31T17:46:12;10.30;73.30
70366;DHT22;57787;48.216;12.396;2023-03-31T17:48:40;10.30;73.40
70366;DHT22;57787;48.216;12.396;2023-03-31T17:51:08;10.30;74.50
70366;DHT22;57787;48.216;12.396;2023-03-31T17:53:35;10.30;75.20
70366;DHT22;57787;48.216;12.396;2023-03-31T17:56:04;10.30;76.40
70366;DHT22;57787;48.216;12.396;2023-03-31T17:58:35;10.30;76.50
70366;DHT22;57787;48.216;12.396;2023-03-31T18:01:04;10.30;78.80
70366;DHT22;57787;48.216;12.396;2023-03-31T18:03:33;10.20;78.00
70366;DHT22;57787;48.216;12.396;2023-03-31T18:06:07;10.20;78.30
70366;DHT22;57787;48.216;12.396;2023-03-31T18:08:34;10.10;77.30
70366;DHT22;57787;48.216;12.396;2023-03-31T18:11:02;10.00;77.60
70366;DHT22;57787;48.216;12.396;2023-03-31T18:13:35;10.00;77.20
70366;DHT22;57787;48.216;12.396;2023-03-31T18:16:02;10.00;76.40
70366;DHT22;57787;48.216;12.396;2023-03-31T18:18:30;9.90;75.70
70366;DHT22;57787;48.216;12.396;2023-03-31T18:20:56;9.80;76.10
70366;DHT22;57787;48.216;12.396;2023-03-31T18:23:27;9.80;75.70
70366;DHT22;57787;48.216;12.396;2023-03-31T18:25:56;9.80;75.40
70366;DHT22;57787;48.216;12.396;2023-03-31T18:28:22;9.70;75.20
70366;DHT22;57787;48.216;12.396;2023-03-31T18:30:49;9.70;75.20
70366;DHT22;57787;48.216;12.396;2023-03-31T18:33:18;9.60;75.80
70366;DHT22;57787;48.216;12.396;2023-03-31T18:35:47;9.60;76.40
70366;DHT22;57787;48.216;12.396;2023-03-31T18:38:18;9.50;76.50
70366;DHT22;57787;48.216;12.396;2023-03-31T18:40:47;9.50;76.60
70366;DHT22;57787;48.216;12.396;2023-03-31T18:43:14;9.50;77.00
70366;DHT22;57787;48.216;12.396;2023-03-31T18:45:41;9.40;76.70
70366;DHT22;57787;48.216;12.396;2023-03-31T18:48:10;9.40;76.30
70366;DHT22;57787;48.216;12.396;2023-03-31T18:50:37;9.40;76.50
70366;DHT22;57787;48.216;12.396;2023-03-31T18:53:05;9.30;76.50
70366;DHT22;57787;48.216;12.396;2023-03-31T18:55:33;9.30;76.20
70366;DHT22;57787;48.216;12.396;2023-03-31T18:58:00;9.20;76.30
70366;DHT22;57787;48.216;12.396;2023-03-31T19:00:26;9.10;76.70
70366;DHT22;57787;48.216;12.396;2023-03-31T19:02:54;9.10;76.50
70366;DHT22;57787;48.216;12.396;2023-03-31T19:05:21;9.00;76.40